Overview Statistics Trail Chart Weather Telemetry Raw packets
 

This is the latest recevied weather packets stored in our database for station/object KG5MMT-15. If no packets are shown the sender has not sent any weather packets the latest 10 day(s).

<< 8 9 10 11 12 13 14 >>
Time Temp. Humidity Pressure Rain* Wind** Luminosity Snow
1788638559 25.56° C 40% 0 hPa 0 mm - - -
1788638259 25.56° C 39% 0 hPa 0 mm - - -
1788637959 25.56° C 40% 0 hPa 0 mm - - -
1788637659 25° C 40% 0 hPa 0 mm - - -
1788637359 24.44° C 38% 0 hPa 0 mm - - -
1788637059 26.67° C 32% 0 hPa 0 mm - - -
1788636759 28.89° C 28% 0 hPa 0 mm - - -
1788636459 28.33° C 29% 0 hPa 0 mm - - -
1788636159 27.78° C 30% 0 hPa 0 mm - - -
1788635859 27.78° C 31% 0 hPa 0 mm - - -
1788635559 27.78° C 31% 0 hPa 0 mm - - -
1788635259 27.22° C 32% 0 hPa 0 mm - - -
1788634959 27.22° C 32% 0 hPa 0 mm - - -
1788634659 26.67° C 33% 0 hPa 0 mm - - -
1788634359 26.67° C 35% 0 hPa 0 mm - - -
1788634059 26.67° C 35% 0 hPa 0 mm - - -
1788633759 26.67° C 36% 0 hPa 0 mm - - -
1788633459 26.67° C 35% 0 hPa 0 mm - - -
1788633159 27.22° C 34% 0 hPa 0 mm - - -
1788632859 27.22° C 32% 0 hPa 0 mm - - -
1788632559 27.22° C 33% 0 hPa 0 mm - - -
1788632259 26.67° C 34% 0 hPa 0 mm - - -
1788631959 27.22° C 35% 0 hPa 0 mm - - -
1788631659 26.67° C 34% 0 hPa 0 mm - - -
1788631359 26.11° C 35% 0 hPa 0 mm - - -

* Rain latest hour (hover to see other rain measurements)
** Current wind speed in m/s (hover to see current wind gust speed)